McEntire Air National Guard, South Carolina
Current Conditions -  °F | °C
As of 8:38 PM on Monday 24 Nov 2014 (Local Time) from KMMT Reporting Station
Light Rain Light Rain  
Wind Chill: 64°   Ceiling: 6500
Heat Index: 64°   Visibility: 10mi
Dew Point: 63°   Wind: 3mph
Humidity: 94%   Direction: NA
Pressure: 29.92"   Gusts: NA
Location:  33.9203°N, 80.6788°W
Report Text: KMMT 250138Z VRB03KT 10SM -RA FEW008 SCT019 BKN065 OVC120 18/17 A2992 RMK AO2A
Loading
Personal Weather Stations






























Interactive Weather Map New forecast layout! Learn more

10-Day Weather Forecast

Advertisements
Track Severe Weather on mobile